sensor_id;sensor_type;location;lat;lon;timestamp;P1;durP1;ratioP1;P2;durP2;ratioP2
60068;SDS011;45945;53.350;55.922;2023-06-10T00:00:55;7.60;;;3.60;;
60068;SDS011;45945;53.350;55.922;2023-06-10T00:01:56;8.18;;;3.97;;
60068;SDS011;45945;53.350;55.922;2023-06-10T00:03:00;7.05;;;4.35;;
60068;SDS011;45945;53.350;55.922;2023-06-10T00:04:02;9.82;;;4.38;;
60068;SDS011;45945;53.350;55.922;2023-06-10T00:05:03;9.45;;;4.72;;
60068;SDS011;45945;53.350;55.922;2023-06-10T00:06:04;13.02;;;4.50;;
60068;SDS011;45945;53.350;55.922;2023-06-10T00:07:06;8.55;;;4.35;;
60068;SDS011;45945;53.350;55.922;2023-06-10T00:08:09;12.43;;;4.47;;
60068;SDS011;45945;53.350;55.922;2023-06-10T00:09:11;7.25;;;4.35;;
60068;SDS011;45945;53.350;55.922;2023-06-10T00:10:12;9.63;;;4.38;;
60068;SDS011;45945;53.350;55.922;2023-06-10T00:11:12;9.50;;;4.38;;
60068;SDS011;45945;53.350;55.922;2023-06-10T00:12:13;8.10;;;4.47;;
60068;SDS011;45945;53.350;55.922;2023-06-10T00:13:15;10.32;;;4.35;;
60068;SDS011;45945;53.350;55.922;2023-06-10T00:14:17;8.73;;;4.05;;
60068;SDS011;45945;53.350;55.922;2023-06-10T00:15:18;8.40;;;3.80;;
60068;SDS011;45945;53.350;55.922;2023-06-10T00:16:19;7.85;;;4.70;;
60068;SDS011;45945;53.350;55.922;2023-06-10T00:17:19;8.00;;;4.20;;
60068;SDS011;45945;53.350;55.922;2023-06-10T00:18:20;9.38;;;4.35;;
60068;SDS011;45945;53.350;55.922;2023-06-10T00:19:22;7.93;;;4.90;;
60068;SDS011;45945;53.350;55.922;2023-06-10T00:20:26;9.52;;;4.35;;
60068;SDS011;45945;53.350;55.922;2023-06-10T00:21:27;8.45;;;4.45;;
60068;SDS011;45945;53.350;55.922;2023-06-10T00:22:28;8.68;;;4.53;;
60068;SDS011;45945;53.350;55.922;2023-06-10T00:23:30;8.15;;;4.32;;
60068;SDS011;45945;53.350;55.922;2023-06-10T00:24:38;11.32;;;5.05;;
60068;SDS011;45945;53.350;55.922;2023-06-10T00:25:39;7.97;;;3.97;;
60068;SDS011;45945;53.350;55.922;2023-06-10T00:26:40;7.00;;;4.30;;
60068;SDS011;45945;53.350;55.922;2023-06-10T00:27:41;8.27;;;4.05;;
60068;SDS011;45945;53.350;55.922;2023-06-10T00:28:42;8.82;;;4.40;;
60068;SDS011;45945;53.350;55.922;2023-06-10T00:29:45;8.00;;;4.40;;
60068;SDS011;45945;53.350;55.922;2023-06-10T00:30:46;7.03;;;4.10;;
60068;SDS011;45945;53.350;55.922;2023-06-10T00:31:47;8.75;;;4.78;;
60068;SDS011;45945;53.350;55.922;2023-06-10T00:32:48;10.52;;;4.47;;
60068;SDS011;45945;53.350;55.922;2023-06-10T00:33:49;8.35;;;4.60;;
60068;SDS011;45945;53.350;55.922;2023-06-10T00:34:49;7.97;;;4.53;;
60068;SDS011;45945;53.350;55.922;2023-06-10T00:35:50;7.95;;;4.35;;
60068;SDS011;45945;53.350;55.922;2023-06-10T00:36:51;8.05;;;4.30;;
60068;SDS011;45945;53.350;55.922;2023-06-10T00:37:52;9.38;;;4.70;;
60068;SDS011;45945;53.350;55.922;2023-06-10T00:38:53;8.18;;;4.18;;
60068;SDS011;45945;53.350;55.922;2023-06-10T00:39:53;8.57;;;4.45;;
60068;SDS011;45945;53.350;55.922;2023-06-10T00:40:54;9.60;;;4.88;;
60068;SDS011;45945;53.350;55.922;2023-06-10T00:41:55;10.80;;;4.82;;
60068;SDS011;45945;53.350;55.922;2023-06-10T00:42:56;8.30;;;4.43;;
60068;SDS011;45945;53.350;55.922;2023-06-10T00:43:57;10.63;;;4.50;;
60068;SDS011;45945;53.350;55.922;2023-06-10T00:44:58;8.82;;;3.75;;
60068;SDS011;45945;53.350;55.922;2023-06-10T00:45:59;9.85;;;4.82;;
60068;SDS011;45945;53.350;55.922;2023-06-10T00:47:00;8.38;;;4.20;;
60068;SDS011;45945;53.350;55.922;2023-06-10T00:48:01;8.77;;;4.53;;
60068;SDS011;45945;53.350;55.922;2023-06-10T00:49:02;8.85;;;4.38;;
60068;SDS011;45945;53.350;55.922;2023-06-10T00:50:04;9.95;;;4.32;;
60068;SDS011;45945;53.350;55.922;2023-06-10T00:51:06;8.35;;;4.45;;
60068;SDS011;45945;53.350;55.922;2023-06-10T00:52:09;9.02;;;4.97;;
60068;SDS011;45945;53.350;55.922;2023-06-10T00:53:10;9.63;;;4.30;;
60068;SDS011;45945;53.350;55.922;2023-06-10T00:54:11;7.70;;;4.38;;
60068;SDS011;45945;53.350;55.922;2023-06-10T00:55:16;8.35;;;4.43;;
60068;SDS011;45945;53.350;55.922;2023-06-10T00:56:17;9.65;;;4.60;;
60068;SDS011;45945;53.350;55.922;2023-06-10T00:57:19;10.65;;;4.20;;
60068;SDS011;45945;53.350;55.922;2023-06-10T00:58:21;9.98;;;4.80;;
60068;SDS011;45945;53.350;55.922;2023-06-10T00:59:23;10.35;;;4.70;;
60068;SDS011;45945;53.350;55.922;2023-06-10T01:00:25;11.23;;;4.55;;
60068;SDS011;45945;53.350;55.922;2023-06-10T01:01:28;8.00;;;4.57;;
60068;SDS011;45945;53.350;55.922;2023-06-10T01:02:30;8.52;;;4.32;;
60068;SDS011;45945;53.350;55.922;2023-06-10T01:03:32;8.30;;;4.47;;
60068;SDS011;45945;53.350;55.922;2023-06-10T01:04:37;7.75;;;3.38;;
60068;SDS011;45945;53.350;55.922;2023-06-10T01:05:38;7.90;;;4.13;;
60068;SDS011;45945;53.350;55.922;2023-06-10T01:08:10;7.80;;;3.53;;
60068;SDS011;45945;53.350;55.922;2023-06-10T01:09:18;9.65;;;4.43;;
60068;SDS011;45945;53.350;55.922;2023-06-10T01:11:49;9.38;;;4.38;;
60068;SDS011;45945;53.350;55.922;2023-06-10T01:13:05;6.50;;;3.85;;
60068;SDS011;45945;53.350;55.922;2023-06-10T01:14:07;8.15;;;4.40;;
60068;SDS011;45945;53.350;55.922;2023-06-10T01:15:10;7.55;;;4.13;;
60068;SDS011;45945;53.350;55.922;2023-06-10T01:16:11;7.97;;;4.57;;
60068;SDS011;45945;53.350;55.922;2023-06-10T01:17:15;8.25;;;4.43;;
60068;SDS011;45945;53.350;55.922;2023-06-10T01:18:18;8.93;;;4.55;;
60068;SDS011;45945;53.350;55.922;2023-06-10T01:19:19;9.55;;;4.38;;
60068;SDS011;45945;53.350;55.922;2023-06-10T01:20:20;7.35;;;4.18;;
60068;SDS011;45945;53.350;55.922;2023-06-10T01:21:21;8.10;;;3.78;;
60068;SDS011;45945;53.350;55.922;2023-06-10T01:22:25;9.32;;;4.60;;
60068;SDS011;45945;53.350;55.922;2023-06-10T01:23:29;7.18;;;3.80;;
60068;SDS011;45945;53.350;55.922;2023-06-10T01:24:30;7.03;;;4.18;;
60068;SDS011;45945;53.350;55.922;2023-06-10T01:25:37;9.15;;;4.10;;
60068;SDS011;45945;53.350;55.922;2023-06-10T01:26:38;8.48;;;4.20;;
60068;SDS011;45945;53.350;55.922;2023-06-10T01:27:41;7.55;;;4.32;;
60068;SDS011;45945;53.350;55.922;2023-06-10T01:28:46;8.38;;;4.22;;
60068;SDS011;45945;53.350;55.922;2023-06-10T01:29:50;11.85;;;4.93;;
60068;SDS011;45945;53.350;55.922;2023-06-10T01:30:59;8.35;;;4.35;;
60068;SDS011;45945;53.350;55.922;2023-06-10T01:32:08;8.15;;;4.20;;
60068;SDS011;45945;53.350;55.922;2023-06-10T01:33:10;8.73;;;4.22;;
60068;SDS011;45945;53.350;55.922;2023-06-10T01:34:12;8.02;;;4.20;;
60068;SDS011;45945;53.350;55.922;2023-06-10T01:35:14;8.13;;;4.60;;
60068;SDS011;45945;53.350;55.922;2023-06-10T01:36:16;6.53;;;3.33;;
60068;SDS011;45945;53.350;55.922;2023-06-10T01:37:18;7.90;;;4.38;;
60068;SDS011;45945;53.350;55.922;2023-06-10T01:38:20;8.90;;;4.22;;
60068;SDS011;45945;53.350;55.922;2023-06-10T01:39:22;7.97;;;4.50;;
60068;SDS011;45945;53.350;55.922;2023-06-10T01:40:24;9.18;;;4.07;;
60068;SDS011;45945;53.350;55.922;2023-06-10T01:41:26;10.02;;;4.38;;
60068;SDS011;45945;53.350;55.922;2023-06-10T01:42:27;9.07;;;4.55;;
60068;SDS011;45945;53.350;55.922;2023-06-10T01:43:28;8.45;;;4.57;;
60068;SDS011;45945;53.350;55.922;2023-06-10T01:44:32;9.55;;;4.20;;
60068;SDS011;45945;53.350;55.922;2023-06-10T01:45:35;10.25;;;4.63;;
60068;SDS011;45945;53.350;55.922;2023-06-10T01:46:35;8.10;;;4.93;;
60068;SDS011;45945;53.350;55.922;2023-06-10T01:47:36;9.30;;;4.30;;
60068;SDS011;45945;53.350;55.922;2023-06-10T01:48:37;8.20;;;4.22;;
60068;SDS011;45945;53.350;55.922;2023-06-10T01:49:38;8.05;;;4.70;;
60068;SDS011;45945;53.350;55.922;2023-06-10T01:50:42;9.95;;;5.60;;
60068;SDS011;45945;53.350;55.922;2023-06-10T01:51:44;8.55;;;4.40;;
60068;SDS011;45945;53.350;55.922;2023-06-10T01:52:45;7.95;;;4.60;;
60068;SDS011;45945;53.350;55.922;2023-06-10T01:53:46;7.38;;;4.00;;
60068;SDS011;45945;53.350;55.922;2023-06-10T01:54:46;9.02;;;4.50;;
60068;SDS011;45945;53.350;55.922;2023-06-10T01:55:47;8.45;;;4.53;;
60068;SDS011;45945;53.350;55.922;2023-06-10T01:56:48;8.25;;;3.70;;
60068;SDS011;45945;53.350;55.922;2023-06-10T01:57:49;8.77;;;4.53;;
60068;SDS011;45945;53.350;55.922;2023-06-10T01:58:50;9.32;;;4.85;;
60068;SDS011;45945;53.350;55.922;2023-06-10T01:59:51;7.65;;;4.22;;
60068;SDS011;45945;53.350;55.922;2023-06-10T02:00:52;7.93;;;4.47;;
60068;SDS011;45945;53.350;55.922;2023-06-10T02:01:52;8.93;;;4.72;;
60068;SDS011;45945;53.350;55.922;2023-06-10T02:02:54;7.53;;;4.63;;
60068;SDS011;45945;53.350;55.922;2023-06-10T02:03:54;8.98;;;4.60;;
60068;SDS011;45945;53.350;55.922;2023-06-10T02:04:56;7.50;;;3.97;;
60068;SDS011;45945;53.350;55.922;2023-06-10T02:05:57;8.60;;;4.70;;
60068;SDS011;45945;53.350;55.922;2023-06-10T02:06:58;10.48;;;4.45;;
60068;SDS011;45945;53.350;55.922;2023-06-10T02:07:59;7.63;;;4.40;;
60068;SDS011;45945;53.350;55.922;2023-06-10T02:09:01;8.05;;;4.30;;
60068;SDS011;45945;53.350;55.922;2023-06-10T02:10:04;7.90;;;4.65;;
60068;SDS011;45945;53.350;55.922;2023-06-10T02:11:06;7.85;;;4.15;;
60068;SDS011;45945;53.350;55.922;2023-06-10T02:12:07;8.55;;;3.63;;
60068;SDS011;45945;53.350;55.922;2023-06-10T02:13:10;7.00;;;3.90;;
60068;SDS011;45945;53.350;55.922;2023-06-10T02:14:11;7.97;;;3.95;;
60068;SDS011;45945;53.350;55.922;2023-06-10T02:15:12;7.57;;;3.97;;
60068;SDS011;45945;53.350;55.922;2023-06-10T02:16:13;10.73;;;4.60;;
60068;SDS011;45945;53.350;55.922;2023-06-10T02:17:14;8.52;;;4.68;;
60068;SDS011;45945;53.350;55.922;2023-06-10T02:18:16;7.57;;;4.40;;
60068;SDS011;45945;53.350;55.922;2023-06-10T02:19:21;9.27;;;4.10;;
60068;SDS011;45945;53.350;55.922;2023-06-10T02:20:22;8.57;;;4.55;;
60068;SDS011;45945;53.350;55.922;2023-06-10T02:21:23;9.15;;;4.50;;
60068;SDS011;45945;53.350;55.922;2023-06-10T02:22:23;7.93;;;4.40;;
60068;SDS011;45945;53.350;55.922;2023-06-10T02:23:24;10.55;;;4.53;;
60068;SDS011;45945;53.350;55.922;2023-06-10T02:24:25;8.80;;;4.32;;
60068;SDS011;45945;53.350;55.922;2023-06-10T02:25:26;7.43;;;4.20;;
60068;SDS011;45945;53.350;55.922;2023-06-10T02:26:31;7.53;;;4.30;;
60068;SDS011;45945;53.350;55.922;2023-06-10T02:27:35;7.05;;;3.60;;
60068;SDS011;45945;53.350;55.922;2023-06-10T02:28:36;7.25;;;3.72;;
60068;SDS011;45945;53.350;55.922;2023-06-10T02:29:36;7.10;;;3.95;;
60068;SDS011;45945;53.350;55.922;2023-06-10T02:30:39;9.93;;;4.25;;
60068;SDS011;45945;53.350;55.922;2023-06-10T02:31:40;10.38;;;4.10;;
60068;SDS011;45945;53.350;55.922;2023-06-10T02:32:42;6.82;;;4.03;;
60068;SDS011;45945;53.350;55.922;2023-06-10T02:33:43;8.10;;;3.60;;
60068;SDS011;45945;53.350;55.922;2023-06-10T02:34:45;8.43;;;3.95;;
60068;SDS011;45945;53.350;55.922;2023-06-10T02:35:46;8.25;;;4.00;;
60068;SDS011;45945;53.350;55.922;2023-06-10T02:36:47;7.75;;;3.90;;
60068;SDS011;45945;53.350;55.922;2023-06-10T02:37:53;6.40;;;3.72;;
60068;SDS011;45945;53.350;55.922;2023-06-10T02:38:54;8.98;;;4.00;;
60068;SDS011;45945;53.350;55.922;2023-06-10T02:39:59;6.15;;;3.45;;
60068;SDS011;45945;53.350;55.922;2023-06-10T02:41:01;8.55;;;3.95;;
60068;SDS011;45945;53.350;55.922;2023-06-10T02:42:02;7.93;;;3.63;;
60068;SDS011;45945;53.350;55.922;2023-06-10T02:43:03;6.68;;;3.42;;
60068;SDS011;45945;53.350;55.922;2023-06-10T02:44:04;7.25;;;3.78;;
60068;SDS011;45945;53.350;55.922;2023-06-10T02:45:06;7.25;;;3.92;;
60068;SDS011;45945;53.350;55.922;2023-06-10T02:46:13;8.70;;;3.80;;
60068;SDS011;45945;53.350;55.922;2023-06-10T02:47:14;7.65;;;3.35;;
60068;SDS011;45945;53.350;55.922;2023-06-10T02:48:15;10.02;;;4.15;;
60068;SDS011;45945;53.350;55.922;2023-06-10T02:49:16;10.02;;;4.72;;
60068;SDS011;45945;53.350;55.922;2023-06-10T02:50:18;7.03;;;3.85;;
60068;SDS011;45945;53.350;55.922;2023-06-10T02:51:35;6.18;;;3.13;;
60068;SDS011;45945;53.350;55.922;2023-06-10T02:52:38;7.90;;;4.72;;
60068;SDS011;45945;53.350;55.922;2023-06-10T02:53:39;9.82;;;3.92;;
60068;SDS011;45945;53.350;55.922;2023-06-10T02:54:44;7.70;;;3.95;;
60068;SDS011;45945;53.350;55.922;2023-06-10T02:55:46;6.50;;;3.30;;
60068;SDS011;45945;53.350;55.922;2023-06-10T02:56:50;6.93;;;3.83;;
60068;SDS011;45945;53.350;55.922;2023-06-10T02:57:55;9.23;;;4.10;;
60068;SDS011;45945;53.350;55.922;2023-06-10T02:58:56;6.88;;;3.47;;
60068;SDS011;45945;53.350;55.922;2023-06-10T02:59:59;6.93;;;3.28;;
60068;SDS011;45945;53.350;55.922;2023-06-10T03:01:00;8.73;;;4.10;;
60068;SDS011;45945;53.350;55.922;2023-06-10T03:02:06;7.90;;;4.20;;
60068;SDS011;45945;53.350;55.922;2023-06-10T03:03:13;5.38;;;2.65;;
60068;SDS011;45945;53.350;55.922;2023-06-10T03:04:23;8.40;;;4.30;;
60068;SDS011;45945;53.350;55.922;2023-06-10T03:05:34;9.23;;;3.85;;
60068;SDS011;45945;53.350;55.922;2023-06-10T03:06:38;8.30;;;3.05;;
60068;SDS011;45945;53.350;55.922;2023-06-10T03:07:51;7.97;;;3.70;;
60068;SDS011;45945;53.350;55.922;2023-06-10T03:08:53;8.52;;;3.70;;
60068;SDS011;45945;53.350;55.922;2023-06-10T03:09:54;8.52;;;4.05;;
60068;SDS011;45945;53.350;55.922;2023-06-10T03:10:55;7.00;;;3.55;;
60068;SDS011;45945;53.350;55.922;2023-06-10T03:11:55;7.68;;;3.45;;
60068;SDS011;45945;53.350;55.922;2023-06-10T03:12:59;8.15;;;3.65;;
60068;SDS011;45945;53.350;55.922;2023-06-10T03:14:00;8.98;;;3.83;;
60068;SDS011;45945;53.350;55.922;2023-06-10T03:15:03;6.10;;;3.05;;
60068;SDS011;45945;53.350;55.922;2023-06-10T03:16:06;7.15;;;4.00;;
60068;SDS011;45945;53.350;55.922;2023-06-10T03:17:10;8.30;;;3.80;;
60068;SDS011;45945;53.350;55.922;2023-06-10T03:18:15;8.93;;;3.83;;
60068;SDS011;45945;53.350;55.922;2023-06-10T03:19:17;6.82;;;3.53;;
60068;SDS011;45945;53.350;55.922;2023-06-10T03:20:22;7.68;;;3.47;;
60068;SDS011;45945;53.350;55.922;2023-06-10T03:21:24;9.15;;;4.03;;
60068;SDS011;45945;53.350;55.922;2023-06-10T03:22:26;10.10;;;3.83;;
60068;SDS011;45945;53.350;55.922;2023-06-10T03:24:36;9.02;;;4.13;;
60068;SDS011;45945;53.350;55.922;2023-06-10T03:25:41;9.65;;;4.25;;
60068;SDS011;45945;53.350;55.922;2023-06-10T03:26:44;10.75;;;3.50;;
60068;SDS011;45945;53.350;55.922;2023-06-10T03:27:45;9.50;;;3.75;;
60068;SDS011;45945;53.350;55.922;2023-06-10T03:28:47;8.57;;;3.35;;
60068;SDS011;45945;53.350;55.922;2023-06-10T03:29:49;8.65;;;4.03;;
60068;SDS011;45945;53.350;55.922;2023-06-10T03:30:50;9.73;;;4.13;;
60068;SDS011;45945;53.350;55.922;2023-06-10T03:31:53;10.90;;;4.20;;
60068;SDS011;45945;53.350;55.922;2023-06-10T03:32:53;7.53;;;3.92;;
60068;SDS011;45945;53.350;55.922;2023-06-10T03:33:58;11.63;;;4.40;;
60068;SDS011;45945;53.350;55.922;2023-06-10T03:35:00;8.77;;;4.30;;
60068;SDS011;45945;53.350;55.922;2023-06-10T03:36:06;10.75;;;3.95;;
60068;SDS011;45945;53.350;55.922;2023-06-10T03:37:08;10.32;;;4.40;;
60068;SDS011;45945;53.350;55.922;2023-06-10T03:38:09;8.73;;;3.90;;
60068;SDS011;45945;53.350;55.922;2023-06-10T03:39:12;8.73;;;3.60;;
60068;SDS011;45945;53.350;55.922;2023-06-10T03:40:14;10.00;;;4.10;;
60068;SDS011;45945;53.350;55.922;2023-06-10T03:41:18;8.45;;;4.05;;
60068;SDS011;45945;53.350;55.922;2023-06-10T03:42:19;10.07;;;3.92;;
60068;SDS011;45945;53.350;55.922;2023-06-10T03:43:21;7.95;;;3.60;;
60068;SDS011;45945;53.350;55.922;2023-06-10T03:44:26;10.07;;;4.30;;
60068;SDS011;45945;53.350;55.922;2023-06-10T03:45:27;7.85;;;3.63;;
60068;SDS011;45945;53.350;55.922;2023-06-10T03:46:29;10.63;;;4.28;;
60068;SDS011;45945;53.350;55.922;2023-06-10T03:47:33;10.68;;;3.63;;
60068;SDS011;45945;53.350;55.922;2023-06-10T03:48:38;7.72;;;3.50;;
60068;SDS011;45945;53.350;55.922;2023-06-10T03:49:39;7.90;;;4.15;;
60068;SDS011;45945;53.350;55.922;2023-06-10T03:50:41;9.77;;;3.45;;
60068;SDS011;45945;53.350;55.922;2023-06-10T03:51:42;7.10;;;3.50;;
60068;SDS011;45945;53.350;55.922;2023-06-10T03:52:44;6.95;;;3.20;;
60068;SDS011;45945;53.350;55.922;2023-06-10T03:53:47;6.90;;;3.60;;
60068;SDS011;45945;53.350;55.922;2023-06-10T03:54:47;7.57;;;3.58;;
60068;SDS011;45945;53.350;55.922;2023-06-10T03:55:48;7.07;;;3.50;;
60068;SDS011;45945;53.350;55.922;2023-06-10T03:56:51;10.18;;;3.40;;
60068;SDS011;45945;53.350;55.922;2023-06-10T03:57:52;9.40;;;3.35;;
60068;SDS011;45945;53.350;55.922;2023-06-10T03:58:54;8.82;;;3.75;;
60068;SDS011;45945;53.350;55.922;2023-06-10T03:59:55;7.10;;;3.22;;
60068;SDS011;45945;53.350;55.922;2023-06-10T04:00:59;8.07;;;3.67;;
60068;SDS011;45945;53.350;55.922;2023-06-10T04:02:07;7.28;;;3.40;;
60068;SDS011;45945;53.350;55.922;2023-06-10T04:03:09;10.02;;;3.40;;
60068;SDS011;45945;53.350;55.922;2023-06-10T04:04:16;7.05;;;3.10;;
60068;SDS011;45945;53.350;55.922;2023-06-10T04:05:18;6.50;;;3.10;;
60068;SDS011;45945;53.350;55.922;2023-06-10T04:06:19;8.57;;;3.60;;
60068;SDS011;45945;53.350;55.922;2023-06-10T04:07:20;7.15;;;3.08;;
60068;SDS011;45945;53.350;55.922;2023-06-10T04:08:21;7.00;;;3.10;;
60068;SDS011;45945;53.350;55.922;2023-06-10T04:09:22;7.32;;;2.80;;
60068;SDS011;45945;53.350;55.922;2023-06-10T04:10:23;6.95;;;2.88;;
60068;SDS011;45945;53.350;55.922;2023-06-10T04:11:24;7.55;;;2.90;;
60068;SDS011;45945;53.350;55.922;2023-06-10T04:12:25;6.38;;;2.88;;
60068;SDS011;45945;53.350;55.922;2023-06-10T04:13:26;8.25;;;2.83;;
60068;SDS011;45945;53.350;55.922;2023-06-10T04:14:31;6.43;;;2.55;;
60068;SDS011;45945;53.350;55.922;2023-06-10T04:15:32;8.23;;;3.28;;
60068;SDS011;45945;53.350;55.922;2023-06-10T04:16:35;7.75;;;3.17;;
60068;SDS011;45945;53.350;55.922;2023-06-10T04:17:37;8.50;;;2.72;;
60068;SDS011;45945;53.350;55.922;2023-06-10T04:18:37;7.15;;;3.00;;
60068;SDS011;45945;53.350;55.922;2023-06-10T04:19:41;6.78;;;3.10;;
60068;SDS011;45945;53.350;55.922;2023-06-10T04:20:42;7.35;;;3.22;;
60068;SDS011;45945;53.350;55.922;2023-06-10T04:21:45;6.47;;;3.08;;
60068;SDS011;45945;53.350;55.922;2023-06-10T04:22:46;12.23;;;3.00;;
60068;SDS011;45945;53.350;55.922;2023-06-10T04:23:47;6.82;;;3.17;;
60068;SDS011;45945;53.350;55.922;2023-06-10T04:24:48;7.32;;;3.03;;
60068;SDS011;45945;53.350;55.922;2023-06-10T04:25:49;6.35;;;2.90;;
60068;SDS011;45945;53.350;55.922;2023-06-10T04:26:50;6.75;;;2.83;;
60068;SDS011;45945;53.350;55.922;2023-06-10T04:27:51;7.72;;;2.85;;
60068;SDS011;45945;53.350;55.922;2023-06-10T04:28:51;6.93;;;2.78;;
60068;SDS011;45945;53.350;55.922;2023-06-10T04:29:52;7.45;;;3.03;;
60068;SDS011;45945;53.350;55.922;2023-06-10T04:30:54;7.68;;;2.90;;
60068;SDS011;45945;53.350;55.922;2023-06-10T04:31:55;6.35;;;2.60;;
60068;SDS011;45945;53.350;55.922;2023-06-10T04:32:55;6.38;;;2.75;;
60068;SDS011;45945;53.350;55.922;2023-06-10T04:33:57;6.10;;;2.70;;
60068;SDS011;45945;53.350;55.922;2023-06-10T04:34:59;6.00;;;3.17;;
60068;SDS011;45945;53.350;55.922;2023-06-10T04:36:00;6.35;;;3.33;;
60068;SDS011;45945;53.350;55.922;2023-06-10T04:37:04;8.15;;;3.45;;
60068;SDS011;45945;53.350;55.922;2023-06-10T04:38:05;7.00;;;3.00;;
60068;SDS011;45945;53.350;55.922;2023-06-10T04:39:06;7.95;;;2.75;;
60068;SDS011;45945;53.350;55.922;2023-06-10T04:40:08;7.45;;;2.75;;
60068;SDS011;45945;53.350;55.922;2023-06-10T04:41:10;7.68;;;2.85;;
60068;SDS011;45945;53.350;55.922;2023-06-10T04:42:11;6.97;;;3.20;;
60068;SDS011;45945;53.350;55.922;2023-06-10T04:43:13;6.45;;;2.90;;
60068;SDS011;45945;53.350;55.922;2023-06-10T04:44:14;6.95;;;2.88;;
60068;SDS011;45945;53.350;55.922;2023-06-10T04:45:16;6.93;;;2.72;;
60068;SDS011;45945;53.350;55.922;2023-06-10T04:46:17;9.02;;;2.72;;
60068;SDS011;45945;53.350;55.922;2023-06-10T04:47:18;9.00;;;3.17;;
60068;SDS011;45945;53.350;55.922;2023-06-10T04:48:20;8.85;;;2.75;;
60068;SDS011;45945;53.350;55.922;2023-06-10T04:49:21;9.07;;;3.10;;
60068;SDS011;45945;53.350;55.922;2023-06-10T04:50:22;6.35;;;3.17;;
60068;SDS011;45945;53.350;55.922;2023-06-10T04:51:23;8.70;;;3.63;;
60068;SDS011;45945;53.350;55.922;2023-06-10T04:52:24;6.95;;;3.35;;
60068;SDS011;45945;53.350;55.922;2023-06-10T04:53:25;6.90;;;2.75;;
60068;SDS011;45945;53.350;55.922;2023-06-10T04:54:26;7.65;;;3.10;;
60068;SDS011;45945;53.350;55.922;2023-06-10T04:55:27;6.45;;;2.80;;
60068;SDS011;45945;53.350;55.922;2023-06-10T04:56:28;6.95;;;2.70;;
60068;SDS011;45945;53.350;55.922;2023-06-10T04:57:29;8.77;;;3.20;;
60068;SDS011;45945;53.350;55.922;2023-06-10T04:58:30;9.48;;;3.33;;
60068;SDS011;45945;53.350;55.922;2023-06-10T04:59:30;10.25;;;3.47;;
60068;SDS011;45945;53.350;55.922;2023-06-10T05:00:32;9.73;;;3.45;;
60068;SDS011;45945;53.350;55.922;2023-06-10T05:01:32;6.85;;;3.33;;
60068;SDS011;45945;53.350;55.922;2023-06-10T05:02:33;6.78;;;2.95;;
60068;SDS011;45945;53.350;55.922;2023-06-10T05:03:34;8.18;;;3.00;;
60068;SDS011;45945;53.350;55.922;2023-06-10T05:04:35;7.32;;;2.83;;
60068;SDS011;45945;53.350;55.922;2023-06-10T05:05:36;7.68;;;3.03;;
60068;SDS011;45945;53.350;55.922;2023-06-10T05:06:37;6.53;;;2.80;;
60068;SDS011;45945;53.350;55.922;2023-06-10T05:07:38;6.85;;;2.85;;
60068;SDS011;45945;53.350;55.922;2023-06-10T05:08:39;8.50;;;3.30;;
60068;SDS011;45945;53.350;55.922;2023-06-10T05:09:40;6.60;;;2.78;;
60068;SDS011;45945;53.350;55.922;2023-06-10T05:10:41;9.25;;;3.13;;
60068;SDS011;45945;53.350;55.922;2023-06-10T05:11:42;9.32;;;2.88;;
60068;SDS011;45945;53.350;55.922;2023-06-10T05:12:43;7.95;;;3.00;;
60068;SDS011;45945;53.350;55.922;2023-06-10T05:13:44;7.25;;;2.90;;
60068;SDS011;45945;53.350;55.922;2023-06-10T05:14:45;6.72;;;2.92;;
60068;SDS011;45945;53.350;55.922;2023-06-10T05:15:46;8.27;;;2.70;;
60068;SDS011;45945;53.350;55.922;2023-06-10T05:16:47;8.73;;;3.67;;
60068;SDS011;45945;53.350;55.922;2023-06-10T05:17:48;7.00;;;2.80;;
60068;SDS011;45945;53.350;55.922;2023-06-10T05:18:49;8.05;;;2.80;;
60068;SDS011;45945;53.350;55.922;2023-06-10T05:19:52;8.20;;;2.90;;
60068;SDS011;45945;53.350;55.922;2023-06-10T05:20:53;8.32;;;3.08;;
60068;SDS011;45945;53.350;55.922;2023-06-10T05:21:57;9.93;;;3.00;;
60068;SDS011;45945;53.350;55.922;2023-06-10T05:22:58;8.48;;;3.08;;
60068;SDS011;45945;53.350;55.922;2023-06-10T05:23:59;7.60;;;2.55;;
60068;SDS011;45945;53.350;55.922;2023-06-10T05:25:00;6.28;;;2.92;;
60068;SDS011;45945;53.350;55.922;2023-06-10T05:26:00;7.57;;;2.80;;
60068;SDS011;45945;53.350;55.922;2023-06-10T05:27:01;7.13;;;2.83;;
60068;SDS011;45945;53.350;55.922;2023-06-10T05:28:03;8.95;;;3.22;;
60068;SDS011;45945;53.350;55.922;2023-06-10T05:29:04;6.95;;;2.83;;
60068;SDS011;45945;53.350;55.922;2023-06-10T05:30:05;7.97;;;3.15;;
60068;SDS011;45945;53.350;55.922;2023-06-10T05:31:08;5.85;;;2.65;;
60068;SDS011;45945;53.350;55.922;2023-06-10T05:32:09;7.38;;;2.90;;
60068;SDS011;45945;53.350;55.922;2023-06-10T05:33:10;7.00;;;3.03;;
60068;SDS011;45945;53.350;55.922;2023-06-10T05:34:11;8.95;;;3.10;;
60068;SDS011;45945;53.350;55.922;2023-06-10T05:35:12;7.70;;;3.20;;
60068;SDS011;45945;53.350;55.922;2023-06-10T05:36:12;7.90;;;2.92;;
60068;SDS011;45945;53.350;55.922;2023-06-10T05:37:14;6.88;;;3.00;;
60068;SDS011;45945;53.350;55.922;2023-06-10T05:38:15;10.35;;;3.20;;
60068;SDS011;45945;53.350;55.922;2023-06-10T05:39:16;6.18;;;3.17;;
60068;SDS011;45945;53.350;55.922;2023-06-10T05:40:16;6.78;;;2.83;;
60068;SDS011;45945;53.350;55.922;2023-06-10T05:41:17;6.95;;;3.08;;
60068;SDS011;45945;53.350;55.922;2023-06-10T05:42:18;7.60;;;3.00;;
60068;SDS011;45945;53.350;55.922;2023-06-10T05:43:19;8.13;;;3.00;;
60068;SDS011;45945;53.350;55.922;2023-06-10T05:44:20;7.32;;;2.80;;
60068;SDS011;45945;53.350;55.922;2023-06-10T05:45:21;7.55;;;3.10;;
60068;SDS011;45945;53.350;55.922;2023-06-10T05:46:22;6.57;;;2.88;;
60068;SDS011;45945;53.350;55.922;2023-06-10T05:47:23;7.45;;;3.33;;
60068;SDS011;45945;53.350;55.922;2023-06-10T05:48:23;8.45;;;3.10;;
60068;SDS011;45945;53.350;55.922;2023-06-10T05:49:24;8.80;;;3.28;;
60068;SDS011;45945;53.350;55.922;2023-06-10T05:50:25;8.88;;;3.22;;
60068;SDS011;45945;53.350;55.922;2023-06-10T05:51:26;10.07;;;3.00;;
60068;SDS011;45945;53.350;55.922;2023-06-10T05:52:30;8.73;;;3.10;;
60068;SDS011;45945;53.350;55.922;2023-06-10T05:53:31;7.45;;;3.50;;
60068;SDS011;45945;53.350;55.922;2023-06-10T05:54:32;7.65;;;3.03;;
60068;SDS011;45945;53.350;55.922;2023-06-10T05:55:33;10.35;;;3.38;;
60068;SDS011;45945;53.350;55.922;2023-06-10T05:56:34;7.35;;;3.17;;
60068;SDS011;45945;53.350;55.922;2023-06-10T05:57:35;8.88;;;3.22;;
60068;SDS011;45945;53.350;55.922;2023-06-10T05:58:36;9.13;;;3.53;;
60068;SDS011;45945;53.350;55.922;2023-06-10T05:59:37;6.85;;;2.97;;
60068;SDS011;45945;53.350;55.922;2023-06-10T06:00:38;7.38;;;3.42;;
60068;SDS011;45945;53.350;55.922;2023-06-10T06:01:39;8.57;;;3.45;;
60068;SDS011;45945;53.350;55.922;2023-06-10T06:02:40;8.98;;;3.03;;
60068;SDS011;45945;53.350;55.922;2023-06-10T06:03:44;7.47;;;3.05;;
60068;SDS011;45945;53.350;55.922;2023-06-10T06:04:45;10.02;;;3.30;;
60068;SDS011;45945;53.350;55.922;2023-06-10T06:05:46;8.20;;;3.25;;
60068;SDS011;45945;53.350;55.922;2023-06-10T06:06:47;7.75;;;3.25;;
60068;SDS011;45945;53.350;55.922;2023-06-10T06:07:48;10.00;;;3.58;;
60068;SDS011;45945;53.350;55.922;2023-06-10T06:08:49;7.35;;;3.00;;
60068;SDS011;45945;53.350;55.922;2023-06-10T06:09:50;8.20;;;3.42;;
60068;SDS011;45945;53.350;55.922;2023-06-10T06:10:51;8.02;;;2.78;;
60068;SDS011;45945;53.350;55.922;2023-06-10T06:11:52;7.28;;;3.25;;